createdAt,value
2023-04-15T00:04:58.630Z,99618.55
2023-04-15T00:10:02.298Z,99621.55
2023-04-15T00:15:06.728Z,99622.59
2023-04-15T00:20:10.595Z,99617.02
2023-04-15T00:25:13.632Z,99614.59
2023-04-15T00:30:17.139Z,99611.25
2023-04-15T00:35:20.046Z,99613.33
2023-04-15T00:40:24.945Z,99607.57
2023-04-15T00:45:30.970Z,99606.38
2023-04-15T00:50:33.881Z,99614.10
2023-04-15T00:55:38.173Z,99615.88
2023-04-15T01:00:41.771Z,99614.50
2023-04-15T01:05:44.742Z,99610.90
2023-04-15T01:10:48.054Z,99613.39
2023-04-15T01:15:52.556Z,99614.98
2023-04-15T01:20:56.023Z,99606.78
2023-04-15T01:25:59.801Z,99611.02
2023-04-15T01:31:10.907Z,99610.34
2023-04-15T01:36:14.554Z,99608.66
2023-04-15T01:41:17.671Z,99607.13
2023-04-15T01:46:21.183Z,99609.44
2023-04-15T01:51:24.397Z,99601.42
2023-04-15T01:56:27.406Z,99594.14
2023-04-15T02:01:30.331Z,99597.65
2023-04-15T02:06:33.528Z,99602.20
2023-04-15T02:11:37.687Z,99600.45
2023-04-15T02:16:40.920Z,99602.89
2023-04-15T02:21:43.872Z,99605.67
2023-04-15T02:26:46.886Z,99603.18
2023-04-15T02:31:50.278Z,99606.48
2023-04-15T02:36:57.341Z,99607.67
2023-04-15T02:42:01.243Z,99610.10
2023-04-15T02:47:07.137Z,99607.54
2023-04-15T02:52:10.204Z,99610.30
2023-04-15T02:57:13.324Z,99610.81
2023-04-15T03:02:16.306Z,99606.44
2023-04-15T03:07:19.943Z,99609.38
2023-04-15T03:12:23.050Z,99616.52
2023-04-15T03:17:26.088Z,99625.24
2023-04-15T03:22:29.108Z,99618.41
2023-04-15T03:27:32.391Z,99624.19
2023-04-15T03:32:35.866Z,99619.68
2023-04-15T03:37:39.004Z,99626.84
2023-04-15T03:42:41.917Z,99619.48
2023-04-15T03:47:45.071Z,99620.30
2023-04-15T03:52:49.563Z,99622.90
2023-04-15T03:57:53.586Z,99623.09
2023-04-15T04:02:57.179Z,99627.08
2023-04-15T04:08:00.779Z,99626.58
2023-04-15T04:13:03.740Z,99629.85
2023-04-15T04:18:06.841Z,99627.77
2023-04-15T04:23:09.857Z,99625.63
2023-04-15T04:28:12.759Z,99625.79
2023-04-15T04:33:15.766Z,99620.16
2023-04-15T04:38:19.076Z,99620.20
2023-04-15T04:43:22.179Z,99623.12
2023-04-15T04:48:25.080Z,99621.59
2023-04-15T04:53:28.297Z,99640.27
2023-04-15T04:58:31.305Z,99630.52
2023-04-15T05:03:34.534Z,99636.94
2023-04-15T05:08:39.922Z,99633.77
2023-04-15T05:13:43.395Z,99634.87
2023-04-15T05:18:46.517Z,99633.45
2023-04-15T05:23:49.716Z,99633.27
2023-04-15T05:28:52.721Z,99632.80
2023-04-15T05:33:55.727Z,99631.35
2023-04-15T05:38:58.651Z,99637.88
2023-04-15T05:44:02.150Z,99641.23
2023-04-15T05:49:05.050Z,99640.98
2023-04-15T05:54:08.064Z,99648.61
2023-04-15T05:59:11.378Z,99647.77
2023-04-15T06:04:14.348Z,99660.66
2023-04-15T06:09:17.796Z,99650.41
2023-04-15T06:14:20.914Z,99656.52
2023-04-15T06:19:23.805Z,99662.36
2023-04-15T06:24:26.833Z,99656.87
2023-04-15T06:29:29.740Z,99664.40
2023-04-15T06:34:32.723Z,99666.98
2023-04-15T06:39:35.624Z,99664.33
2023-04-15T06:44:39.044Z,99662.64
2023-04-15T06:49:43.281Z,99670.18
2023-04-15T06:54:46.485Z,99672.08
2023-04-15T06:59:49.392Z,99683.17
2023-04-15T07:04:52.299Z,99679.43
2023-04-15T07:09:55.200Z,99682.23
2023-04-15T07:14:58.321Z,99679.86
2023-04-15T07:20:01.214Z,99694.48
2023-04-15T07:25:04.687Z,99683.17
2023-04-15T07:30:09.222Z,99692.30
2023-04-15T07:35:12.290Z,99692.96
2023-04-15T07:40:16.336Z,99695.72
2023-04-15T07:45:19.322Z,99700.48
2023-04-15T07:50:23.301Z,99697.30
2023-04-15T07:55:28.283Z,99707.66
2023-04-15T08:00:32.232Z,99710.67
2023-04-15T08:05:35.254Z,99707.89
2023-04-15T08:10:38.349Z,99709.59
2023-04-15T08:15:41.550Z,99708.13
2023-04-15T08:20:44.667Z,99702.14
2023-04-15T08:25:47.675Z,99709.10
2023-04-15T08:30:53.113Z,99710.20
2023-04-15T08:35:56.050Z,99712.03
2023-04-15T08:41:04.331Z,99708.36
2023-04-15T08:46:07.683Z,99707.48
2023-04-15T08:51:11.168Z,99704.81
2023-04-15T08:56:16.461Z,99712.95
2023-04-15T09:01:19.713Z,99706.70
2023-04-15T09:06:23.663Z,99702.93
2023-04-15T09:11:27.319Z,99707.64
2023-04-15T09:16:30.294Z,99708.87
2023-04-15T09:21:34.057Z,99711.64
2023-04-15T09:26:40.456Z,99707.73
2023-04-15T09:31:43.758Z,99714.42
2023-04-15T09:36:48.080Z,99718.86
2023-04-15T09:42:08.381Z,99716.35
2023-04-15T09:47:31.669Z,99724.44
2023-04-15T09:52:43.190Z,99722.27
2023-04-15T09:57:47.589Z,99724.02
2023-04-15T10:02:51.947Z,99730.91
2023-04-15T10:07:55.192Z,99739.38
2023-04-15T10:12:58.285Z,99743.29
2023-04-15T10:18:02.192Z,99741.10
2023-04-15T10:23:06.874Z,99743.85
2023-04-15T10:28:12.606Z,99745.27
2023-04-15T10:33:20.260Z,99744.08
2023-04-15T10:38:36.851Z,99737.09
2023-04-15T10:43:40.085Z,99748.20
2023-04-15T10:48:53.951Z,99750.22
2023-04-15T10:53:59.599Z,99753.80
2023-04-15T10:59:05.979Z,99753.91
2023-04-15T11:04:09.114Z,99746.27
2023-04-15T11:09:33.112Z,99752.73
2023-04-15T11:14:41.739Z,99754.63
2023-04-15T11:19:44.949Z,99760.78
2023-04-15T11:24:50.753Z,99754.75
2023-04-15T11:29:54.346Z,99759.95
2023-04-15T11:34:58.578Z,99763.30
2023-04-15T11:40:03.621Z,99757.44
2023-04-15T11:45:09.536Z,99761.55
2023-04-15T11:50:20.416Z,99779.52
2023-04-15T11:55:26.874Z,99775.52
2023-04-15T12:00:29.897Z,99778.95
2023-04-15T12:05:33.005Z,99771.79
2023-04-15T12:10:35.911Z,99775.67
2023-04-15T12:15:39.567Z,99777.63
2023-04-15T12:20:45.917Z,99787.52
2023-04-15T12:25:52.825Z,99786.21
2023-04-15T12:30:56.040Z,99787.84
2023-04-15T12:35:59.649Z,99786.83
2023-04-15T12:41:02.759Z,99791.98
2023-04-15T12:46:07.226Z,99796.56
2023-04-15T12:51:10.514Z,99798.52
2023-04-15T12:56:13.525Z,99798.45
2023-04-15T13:01:16.525Z,99804.40
2023-04-15T13:06:19.746Z,99801.33
2023-04-15T13:11:23.261Z,99797.83
2023-04-15T13:16:26.394Z,99806.38
2023-04-15T13:21:32.239Z,99807.06
2023-04-15T13:26:35.153Z,99817.44
2023-04-15T13:31:38.102Z,99819.25
2023-04-15T13:36:41.048Z,99823.70
2023-04-15T13:41:44.169Z,99816.29
2023-04-15T13:46:47.370Z,99821.63
2023-04-15T13:51:51.761Z,99823.69
2023-04-15T13:56:56.589Z,99822.52
2023-04-15T14:01:59.724Z,99831.16
2023-04-15T14:07:05.026Z,99833.30
2023-04-15T14:12:08.573Z,99832.52
2023-04-15T14:17:11.761Z,99836.05
2023-04-15T14:22:14.765Z,99836.02
2023-04-15T14:27:17.765Z,99839.98
2023-04-15T14:32:21.428Z,99844.17
2023-04-15T14:37:24.496Z,99849.71
2023-04-15T14:42:27.506Z,99851.56
2023-04-15T14:47:31.567Z,99857.84
2023-04-15T14:52:38.857Z,99867.55
2023-04-15T14:57:42.766Z,99872.23
2023-04-15T15:02:47.583Z,99884.30
2023-04-15T15:07:50.734Z,99883.67
2023-04-15T15:12:53.739Z,99892.13
2023-04-15T15:17:56.769Z,99891.77
2023-04-15T15:23:01.013Z,99891.27
2023-04-15T15:28:04.030Z,99897.41
2023-04-15T15:33:07.368Z,99908.73
2023-04-15T15:38:12.677Z,99908.17
2023-04-15T15:43:15.568Z,99912.64
2023-04-15T15:48:18.776Z,99915.14
2023-04-15T15:53:24.441Z,99915.77
2023-04-15T15:58:27.450Z,99923.83
2023-04-15T16:03:30.784Z,99928.05
2023-04-15T16:08:33.872Z,99936.33
2023-04-15T16:13:36.983Z,99935.77
2023-04-15T16:18:39.991Z,99941.47
2023-04-15T16:23:42.999Z,99952.38
2023-04-15T16:28:46.203Z,99958.00
2023-04-15T16:33:49.113Z,99960.68
2023-04-15T16:38:52.630Z,99970.51
2023-04-15T16:43:58.097Z,99974.07
2023-04-15T16:49:01.509Z,99981.46
2023-04-15T16:54:04.582Z,99991.98
2023-04-15T16:59:07.520Z,100003.23
2023-04-15T17:04:10.572Z,100008.39
2023-04-15T17:09:13.633Z,100010.77
2023-04-15T17:14:16.651Z,100012.45
2023-04-15T17:19:19.856Z,100024.39
2023-04-15T17:24:23.371Z,100031.45
2023-04-15T17:29:26.384Z,100034.50
2023-04-15T17:34:50.796Z,100037.19
2023-04-15T17:39:53.208Z,100043.89
2023-04-15T17:44:56.399Z,100048.84
2023-04-15T17:49:59.498Z,100057.77
2023-04-15T17:55:02.858Z,100066.19
2023-04-15T18:00:07.130Z,100074.98
2023-04-15T18:05:10.817Z,100080.49
2023-04-15T18:10:13.885Z,100083.72
2023-04-15T18:15:16.882Z,100091.98
2023-04-15T18:20:20.425Z,100092.05
2023-04-15T18:25:23.407Z,100093.66
2023-04-15T18:30:26.937Z,100102.42
2023-04-15T18:35:30.149Z,100106.49
2023-04-15T18:40:33.083Z,100119.27
2023-04-15T18:45:36.599Z,100118.80
2023-04-15T18:50:39.492Z,100125.29
2023-04-15T18:55:43.093Z,100124.98
2023-04-15T19:00:46.133Z,100127.29
2023-04-15T19:05:49.306Z,100134.28
2023-04-15T19:10:52.417Z,100139.86
2023-04-15T19:15:55.627Z,100141.45
2023-04-15T19:20:58.630Z,100138.01
2023-04-15T19:26:01.643Z,100135.22
2023-04-15T19:31:04.779Z,100140.11
2023-04-15T19:36:07.964Z,100143.08
2023-04-15T19:41:11.281Z,100151.24
2023-04-15T19:46:14.414Z,100143.95
2023-04-15T19:51:17.497Z,100145.86
2023-04-15T19:56:20.934Z,100140.81
2023-04-15T20:01:24.060Z,100136.11
2023-04-15T20:06:27.639Z,100141.69
2023-04-15T20:12:47.457Z,100138.39
2023-04-15T20:16:53.944Z,100139.41
2023-04-15T20:21:56.930Z,100133.16
2023-04-15T20:27:00.040Z,100136.98
2023-04-15T20:32:03.156Z,100134.53
2023-04-15T20:37:07.349Z,100133.29
2023-04-15T20:42:10.713Z,100132.75
2023-04-15T20:47:13.946Z,100133.61
2023-04-15T20:52:17.019Z,100136.90
2023-04-15T20:57:24.740Z,100138.80
2023-04-15T21:02:27.938Z,100143.15
2023-04-15T21:07:31.580Z,100144.70
2023-04-15T21:12:34.700Z,100147.48
2023-04-15T21:17:38.292Z,100149.91
2023-04-15T21:22:41.518Z,100148.34
2023-04-15T21:27:44.724Z,100152.69
2023-04-15T21:32:47.773Z,100153.57
2023-04-15T21:37:50.836Z,100165.77
2023-04-15T21:42:53.947Z,100164.90
2023-04-15T21:48:07.049Z,100171.67
2023-04-15T21:53:11.746Z,100175.67
2023-04-15T21:58:14.746Z,100178.48
2023-04-15T22:03:17.829Z,100184.23
2023-04-15T22:08:20.971Z,100187.70
2023-04-15T22:13:23.967Z,100195.17
2023-04-15T22:18:26.868Z,100196.39
2023-04-15T22:23:29.979Z,100201.97
2023-04-15T22:28:33.190Z,100200.92
2023-04-15T22:33:36.309Z,100203.54
2023-04-15T22:38:39.301Z,100207.38
2023-04-15T22:43:42.417Z,100207.74
2023-04-15T22:48:46.136Z,100208.95
2023-04-15T22:53:49.961Z,100211.05
2023-04-15T22:58:52.964Z,100213.14
2023-04-15T23:04:05.633Z,100210.52
2023-04-15T23:09:12.013Z,100214.02
2023-04-15T23:14:15.101Z,100214.89
2023-04-15T23:19:18.304Z,100212.82
2023-04-15T23:24:21.311Z,100215.27
2023-04-15T23:29:24.419Z,100215.78
2023-04-15T23:34:27.526Z,100217.18
2023-04-15T23:39:30.740Z,100213.90
2023-04-15T23:44:33.952Z,100215.64
2023-04-15T23:49:37.160Z,100209.55
2023-04-15T23:54:40.228Z,100210.95
2023-04-15T23:59:43.078Z,100208.52
